Time;durP1;ratioP1;P1;durP2;ratioP2;P2;SDS_P1;SDS_P2;PMS_P1;PMS_P2;Temp;Humidity;BMP_temperature;BMP_pressure;BME280_temperature;BME280_humidity;BME280_pressure;Samples;Min_cycle;Max_cycle;Signal;HPM_P1;HPM_P2
2023/01/03 00:02:22;;;;;;;0.30;0.20;;;9.00;99.90;;;;;;5076443;28;20438;-85
2023/01/03 00:04:49;;;;;;;0.40;0.30;;;8.90;99.90;;;;;;5076383;28;20469;-85
2023/01/03 00:07:32;;;;;;;0.30;0.20;;;8.90;99.90;;;;;;5075934;28;20945;-85
2023/01/03 00:09:59;;;;;;;1.07;0.40;;;8.90;99.90;;;;;;5075999;28;20992;-85
2023/01/03 00:12:26;;;;;;;0.57;0.37;;;8.90;99.90;;;;;;5076149;28;20452;-85
2023/01/03 00:14:54;;;;;;;0.30;0.30;;;8.90;99.90;;;;;;5076128;28;20466;-85
2023/01/03 00:17:21;;;;;;;0.30;0.30;;;8.90;99.90;;;;;;5076108;28;20449;-85
2023/01/03 00:19:48;;;;;;;0.30;0.30;;;8.90;99.90;;;;;;5076073;28;20528;-85
2023/01/03 00:22:15;;;;;;;0.30;0.30;;;8.90;99.90;;;;;;5075984;28;20457;-85
2023/01/03 00:24:42;;;;;;;1.23;0.40;;;8.90;99.90;;;;;;5075866;28;20488;-85
2023/01/03 00:27:10;;;;;;;0.30;0.30;;;9.00;99.90;;;;;;5075942;28;20449;-85
2023/01/03 00:29:37;;;;;;;0.30;0.30;;;8.90;99.90;;;;;;5075776;28;21114;-85
2023/01/03 00:32:06;;;;;;;0.30;0.30;;;8.90;99.90;;;;;;5075868;28;20430;-85
2023/01/03 00:34:33;;;;;;;0.30;0.30;;;9.00;99.90;;;;;;5075705;28;20476;-85
2023/01/03 00:37:00;;;;;;;0.40;0.30;;;9.00;99.90;;;;;;5075655;28;20453;-85
2023/01/03 00:39:27;;;;;;;0.53;0.53;;;8.90;99.90;;;;;;5075410;28;20452;-85
2023/01/03 00:41:54;;;;;;;0.30;0.20;;;9.00;99.90;;;;;;5075710;28;20461;-85
2023/01/03 00:44:21;;;;;;;0.30;0.20;;;8.90;99.90;;;;;;5074219;28;20988;-85
2023/01/03 00:46:48;;;;;;;0.93;0.30;;;8.90;99.90;;;;;;5075476;28;20445;-85
2023/01/03 00:49:16;;;;;;;0.30;0.20;;;8.90;99.90;;;;;;5075459;28;20485;-85
2023/01/03 00:51:43;;;;;;;0.30;0.20;;;8.90;99.90;;;;;;5075182;28;20453;-85
2023/01/03 00:54:11;;;;;;;0.47;0.40;;;8.90;99.90;;;;;;5075277;28;20472;-85
2023/01/03 00:56:40;;;;;;;0.30;0.30;;;8.80;99.90;;;;;;5075388;28;20446;-85
2023/01/03 00:59:07;;;;;;;0.70;0.30;;;8.90;99.90;;;;;;5075206;28;20464;-85
2023/01/03 01:01:36;;;;;;;0.70;0.37;;;8.80;99.90;;;;;;5075176;28;20468;-85
2023/01/03 01:04:06;;;;;;;0.30;0.30;;;8.80;99.90;;;;;;5075126;28;20473;-85
2023/01/03 01:06:38;;;;;;;0.40;0.30;;;8.80;99.90;;;;;;5074883;28;20917;-85
2023/01/03 01:09:07;;;;;;;0.43;0.30;;;8.70;99.90;;;;;;5074830;28;20470;-85
2023/01/03 01:11:34;;;;;;;0.30;0.30;;;8.70;99.90;;;;;;5075168;28;20802;-85
2023/01/03 01:14:01;;;;;;;0.40;0.30;;;8.70;99.90;;;;;;5074632;28;20473;-85
2023/01/03 01:16:30;;;;;;;0.30;0.30;;;8.80;99.90;;;;;;5074949;28;20503;-85
2023/01/03 01:18:59;;;;;;;0.40;0.30;;;8.70;99.90;;;;;;5074840;28;20450;-85
2023/01/03 01:21:28;;;;;;;0.40;0.30;;;8.70;99.90;;;;;;5074689;28;20445;-85
2023/01/03 01:23:57;;;;;;;0.40;0.30;;;8.70;99.90;;;;;;5074794;28;20473;-85
2023/01/03 01:26:25;;;;;;;0.40;0.30;;;8.60;99.90;;;;;;5074419;28;20445;-85
2023/01/03 01:28:53;;;;;;;0.40;0.30;;;8.70;99.90;;;;;;5074547;28;20481;-85
2023/01/03 01:31:22;;;;;;;0.30;0.20;;;8.60;99.90;;;;;;5074602;28;20450;-85
2023/01/03 01:33:49;;;;;;;0.40;0.30;;;8.60;99.90;;;;;;5074410;28;20472;-85
2023/01/03 01:36:18;;;;;;;0.30;0.30;;;8.60;99.90;;;;;;5074485;28;20451;-85
2023/01/03 01:38:46;;;;;;;0.40;0.30;;;8.60;99.90;;;;;;5074531;28;20445;-86
2023/01/03 01:44:36;;;;;;;0.30;0.30;;;8.60;99.90;;;;;;5074461;28;20449;-85
2023/01/03 01:46:48;;;;;;;0.30;0.30;;;8.50;99.90;;;;;;5074151;28;20491;-85
2023/01/03 01:49:19;;;;;;;0.30;0.30;;;8.50;99.90;;;;;;5074227;28;20488;-85
2023/01/03 01:51:46;;;;;;;0.30;0.30;;;8.50;99.90;;;;;;5074400;28;20430;-85
2023/01/03 01:54:13;;;;;;;0.30;0.30;;;8.50;99.90;;;;;;5074269;28;20825;-85
2023/01/03 01:56:45;;;;;;;0.30;0.20;;;8.50;99.90;;;;;;5074014;28;20449;-85
2023/01/03 01:59:12;;;;;;;0.30;0.30;;;8.50;99.90;;;;;;5074158;28;20426;-85
2023/01/03 02:01:41;;;;;;;0.40;0.30;;;8.40;99.90;;;;;;5074090;28;20446;-85
2023/01/03 02:04:23;;;;;;;0.40;0.30;;;8.40;99.90;;;;;;5073732;28;20492;-85
2023/01/03 02:06:50;;;;;;;0.40;0.30;;;8.50;99.90;;;;;;5074112;28;20426;-85
2023/01/03 02:09:17;;;;;;;0.37;0.30;;;8.50;99.90;;;;;;5073912;28;20500;-85
2023/01/03 02:13:04;;;;;;;0.30;0.30;;;8.40;99.90;;;;;;5074062;28;20446;-85
2023/01/03 02:14:52;;;;;;;0.30;0.30;;;8.50;99.90;;;;;;5073256;28;20512;-85
2023/01/03 02:17:30;;;;;;;0.37;0.37;;;8.40;99.90;;;;;;5073960;28;20433;-85
2023/01/03 02:20:08;;;;;;;0.40;0.30;;;8.40;99.90;;;;;;5073909;28;20433;-85
2023/01/03 02:23:01;;;;;;;0.60;0.30;;;8.30;99.90;;;;;;5073845;28;20436;-85
2023/01/03 02:26:08;;;;;;;0.40;0.40;;;8.30;99.90;;;;;;5073407;28;20473;-85
2023/01/03 02:29:00;;;;;;;0.30;0.30;;;8.30;99.90;;;;;;5073352;28;20975;-85
2023/01/03 02:31:34;;;;;;;0.30;0.30;;;8.20;99.90;;;;;;5073651;28;20456;-85
2023/01/03 02:34:08;;;;;;;0.60;0.30;;;8.20;99.90;;;;;;5073615;28;20461;-85
2023/01/03 02:36:47;;;;;;;0.30;0.30;;;8.30;99.90;;;;;;5073701;28;20773;-85
2023/01/03 02:39:22;;;;;;;0.50;0.50;;;8.30;99.90;;;;;;5074144;28;20785;-85
2023/01/03 02:42:56;;;;;;;0.30;0.30;;;8.30;99.90;;;;;;5073632;28;20440;-85
2023/01/03 02:44:50;;;;;;;0.30;0.30;;;8.20;99.90;;;;;;5073043;28;20457;-85
2023/01/03 02:47:21;;;;;;;0.30;0.30;;;8.20;99.90;;;;;;5073667;28;20805;-85
2023/01/03 02:49:51;;;;;;;0.40;0.30;;;8.10;99.90;;;;;;5073132;28;20998;-85
2023/01/03 02:52:21;;;;;;;0.40;0.30;;;8.10;99.90;;;;;;5073500;28;20541;-85
2023/01/03 02:54:53;;;;;;;0.40;0.30;;;8.00;99.90;;;;;;5073448;28;20476;-85
2023/01/03 02:57:24;;;;;;;0.50;0.30;;;8.00;99.90;;;;;;5073457;28;20441;-85
2023/01/03 02:59:54;;;;;;;0.30;0.30;;;8.00;99.90;;;;;;5073489;28;20429;-85
2023/01/03 03:02:28;;;;;;;0.30;0.27;;;8.00;99.90;;;;;;5073106;28;20784;-85
2023/01/03 03:04:56;;;;;;;0.40;0.30;;;8.00;99.90;;;;;;5073523;28;20481;-85
2023/01/03 03:07:26;;;;;;;0.40;0.33;;;8.00;99.90;;;;;;5074976;28;20951;-85
2023/01/03 03:15:30;;;;;;;0.40;0.30;;;8.00;99.90;;;;;;5077328;28;20940;-85
2023/01/03 03:18:06;;;;;;;0.30;0.27;;;8.00;99.90;;;;;;5076984;28;20944;-85
2023/01/03 03:26:11;;;;;;;0.30;0.30;;;7.90;99.90;;;;;;5077246;28;20414;-85
2023/01/03 03:28:42;;;;;;;0.40;0.30;;;7.90;99.90;;;;;;5077060;28;20430;-85
2023/01/03 03:31:12;;;;;;;0.33;0.27;;;7.90;99.90;;;;;;5077008;28;20515;-85
2023/01/03 03:33:46;;;;;;;0.30;0.30;;;7.80;99.90;;;;;;5076680;28;21013;-85
2023/01/03 03:36:17;;;;;;;0.37;0.37;;;7.80;99.90;;;;;;5077015;28;20434;-85
2023/01/03 03:38:45;;;;;;;0.30;0.30;;;7.80;99.90;;;;;;5076861;28;20433;-85
2023/01/03 03:47:13;;;;;;;0.30;0.20;;;7.70;99.90;;;;;;5076593;28;20843;-85
2023/01/03 03:49:44;;;;;;;0.30;0.30;;;7.70;99.90;;;;;;5076456;28;20468;-86
2023/01/03 03:52:14;;;;;;;0.77;0.40;;;7.70;99.90;;;;;;5076635;28;20809;-85
2023/01/03 03:54:46;;;;;;;0.50;0.30;;;7.70;99.90;;;;;;5076418;28;20461;-85
2023/01/03 03:57:19;;;;;;;0.30;0.20;;;7.60;99.90;;;;;;5076461;28;20441;-85
2023/01/03 03:59:51;;;;;;;0.30;0.20;;;7.50;99.90;;;;;;5076462;28;20441;-85
2023/01/03 04:02:20;;;;;;;0.40;0.30;;;7.50;99.90;;;;;;5076502;28;20430;-85
2023/01/03 04:04:52;;;;;;;0.40;0.30;;;7.40;99.90;;;;;;5076373;28;20817;-85
2023/01/03 04:07:18;;;;;;;2.00;0.63;;;7.30;99.90;;;;;;5076290;28;20513;-85
2023/01/03 04:09:45;;;;;;;0.33;0.27;;;7.20;99.90;;;;;;5076182;28;20493;-85
2023/01/03 04:12:12;;;;;;;0.50;0.30;;;7.10;99.90;;;;;;5076214;28;20820;-85
2023/01/03 04:14:39;;;;;;;0.70;0.50;;;7.10;99.90;;;;;;5075810;28;20487;-85
2023/01/03 04:17:05;;;;;;;0.50;0.50;;;7.00;99.90;;;;;;5076199;28;20461;-85
2023/01/03 04:19:32;;;;;;;0.30;0.30;;;7.00;99.90;;;;;;5076263;28;20449;-85
2023/01/03 04:22:00;;;;;;;0.30;0.30;;;7.00;99.90;;;;;;5076585;28;20457;-85
2023/01/03 04:24:27;;;;;;;0.40;0.30;;;7.00;99.90;;;;;;5076052;28;20470;-85
2023/01/03 04:26:54;;;;;;;0.80;0.30;;;6.90;99.90;;;;;;5076180;28;20813;-85
2023/01/03 04:29:20;;;;;;;0.53;0.40;;;6.90;99.90;;;;;;5075657;28;20944;-85
2023/01/03 04:31:47;;;;;;;0.30;0.30;;;6.90;99.90;;;;;;5075936;28;20445;-85
2023/01/03 04:34:14;;;;;;;0.30;0.20;;;6.90;99.90;;;;;;5075804;28;20473;-85
2023/01/03 04:36:40;;;;;;;0.30;0.30;;;6.80;99.90;;;;;;5075968;28;20449;-85
2023/01/03 04:39:09;;;;;;;0.30;0.30;;;6.70;99.90;;;;;;5075542;28;20470;-85
2023/01/03 04:41:35;;;;;;;1.13;0.30;;;6.70;99.90;;;;;;5075948;28;20441;-86
2023/01/03 04:44:03;;;;;;;0.40;0.30;;;6.70;99.90;;;;;;5075873;28;20480;-85
2023/01/03 04:46:32;;;;;;;0.30;0.30;;;6.70;99.90;;;;;;5075567;28;20441;-85
2023/01/03 04:49:00;;;;;;;0.30;0.27;;;6.70;99.90;;;;;;5075612;28;20531;-85
2023/01/03 04:51:27;;;;;;;0.40;0.40;;;6.70;99.90;;;;;;5075527;28;20486;-85
2023/01/03 04:53:54;;;;;;;0.30;0.30;;;6.80;99.90;;;;;;5075185;28;20470;-85
2023/01/03 04:56:26;;;;;;;0.30;0.30;;;6.80;99.90;;;;;;5075553;28;20921;-86
2023/01/03 04:58:53;;;;;;;0.30;0.30;;;6.80;99.90;;;;;;5075421;28;20456;-85
2023/01/03 05:01:21;;;;;;;0.40;0.30;;;6.80;99.90;;;;;;5075343;28;20446;-85
2023/01/03 05:03:47;;;;;;;0.63;0.50;;;6.90;99.90;;;;;;5075194;28;20484;-85
2023/01/03 05:06:15;;;;;;;0.30;0.30;;;6.90;99.90;;;;;;5075225;28;20456;-85
2023/01/03 05:08:45;;;;;;;0.30;0.20;;;6.90;99.90;;;;;;5075270;28;20473;-85
2023/01/03 05:11:11;;;;;;;0.30;0.30;;;6.80;99.90;;;;;;5075053;28;20473;-85
2023/01/03 05:13:39;;;;;;;0.40;0.40;;;6.80;99.90;;;;;;5074603;28;20485;-85
2023/01/03 05:16:08;;;;;;;0.40;0.40;;;6.90;99.90;;;;;;5074999;28;20812;-85
2023/01/03 05:18:35;;;;;;;0.30;0.30;;;6.90;99.90;;;;;;5075037;28;20528;-85
2023/01/03 05:26:38;;;;;;;0.30;0.30;;;6.90;99.90;;;;;;5074976;28;20885;-85
2023/01/03 05:29:07;;;;;;;0.30;0.20;;;6.90;99.90;;;;;;5074719;28;20441;-85
2023/01/03 05:31:34;;;;;;;0.40;0.30;;;6.80;99.90;;;;;;5074383;28;20611;-85
2023/01/03 05:34:01;;;;;;;0.40;0.33;;;6.70;99.90;;;;;;5074694;28;20476;-85
2023/01/03 05:36:27;;;;;;;0.30;0.30;;;6.70;99.90;;;;;;5074505;28;20457;-85
2023/01/03 05:38:54;;;;;;;0.63;0.63;;;6.70;99.90;;;;;;5074586;28;20818;-85
2023/01/03 05:44:01;;;;;;;0.40;0.30;;;6.60;99.90;;;;;;5074142;28;20487;-87
2023/01/03 05:46:30;;;;;;;0.40;0.37;;;6.60;99.90;;;;;;5074586;28;20453;-87
2023/01/03 05:48:56;;;;;;;0.40;0.30;;;6.60;99.90;;;;;;5074860;28;20442;-86
2023/01/03 05:51:23;;;;;;;0.40;0.30;;;6.60;99.90;;;;;;5074211;28;20993;-87
2023/01/03 05:53:50;;;;;;;0.30;0.30;;;6.60;99.90;;;;;;5074564;28;20461;-87
2023/01/03 05:56:17;;;;;;;0.30;0.20;;;6.60;99.90;;;;;;5074706;28;20925;-86
2023/01/03 05:58:43;;;;;;;0.30;0.30;;;6.50;99.90;;;;;;5074362;28;20457;-86
2023/01/03 06:01:11;;;;;;;0.40;0.30;;;6.50;99.90;;;;;;5074342;28;20449;-87
2023/01/03 06:03:39;;;;;;;0.40;0.30;;;6.50;99.90;;;;;;5074285;28;20469;-87
2023/01/03 06:06:08;;;;;;;0.40;0.30;;;6.50;99.90;;;;;;5074290;28;20445;-87
2023/01/03 06:08:35;;;;;;;0.30;0.30;;;6.40;99.90;;;;;;5074390;28;20453;-87
2023/01/03 06:11:05;;;;;;;0.40;0.37;;;6.40;99.90;;;;;;5074314;28;20489;-86
2023/01/03 06:13:32;;;;;;;0.40;0.30;;;6.40;99.90;;;;;;5074037;28;20478;-86
2023/01/03 06:18:49;;;;;;;0.50;0.50;;;6.50;99.90;;;;;;5074350;28;20413;-87
2023/01/03 06:21:16;;;;;;;0.30;0.20;;;6.50;99.90;;;;;;5074304;28;20917;-86
2023/01/03 06:23:44;;;;;;;0.40;0.30;;;6.40;99.90;;;;;;5073607;28;20502;-86
2023/01/03 06:26:10;;;;;;;0.30;0.30;;;6.40;99.90;;;;;;5073899;28;20499;-87
2023/01/03 06:28:37;;;;;;;0.40;0.33;;;6.40;99.90;;;;;;5074313;28;20441;-87
2023/01/03 06:31:04;;;;;;;0.40;0.30;;;6.40;99.90;;;;;;5073993;28;20485;-87
2023/01/03 06:33:31;;;;;;;0.80;0.40;;;6.30;99.90;;;;;;5074497;28;20449;-86
2023/01/03 06:36:02;;;;;;;0.40;0.40;;;6.30;99.90;;;;;;5073771;28;20452;-86
2023/01/03 06:38:29;;;;;;;0.30;0.30;;;6.30;99.90;;;;;;5074040;28;20446;-87
2023/01/03 06:40:55;;;;;;;0.30;0.30;;;6.30;99.90;;;;;;5073530;28;20437;-86
2023/01/03 06:43:22;;;;;;;0.30;0.20;;;6.20;99.90;;;;;;5073386;28;20456;-87
2023/01/03 06:54:06;;;;;;;0.30;0.30;;;6.20;99.90;;;;;;5073922;28;20453;-87
2023/01/03 06:56:33;;;;;;;0.40;0.30;;;6.10;99.90;;;;;;5073594;28;20456;-86
2023/01/03 06:58:59;;;;;;;0.30;0.30;;;6.00;99.90;;;;;;5073787;28;20448;-86
2023/01/03 07:01:26;;;;;;;0.30;0.30;;;6.00;99.90;;;;;;5073591;28;20457;-86
2023/01/03 07:03:53;;;;;;;0.40;0.30;;;6.00;99.90;;;;;;5073641;28;20469;-86
2023/01/03 07:06:21;;;;;;;0.40;0.30;;;6.00;99.90;;;;;;5073405;28;20508;-86
2023/01/03 07:08:48;;;;;;;0.30;0.30;;;6.00;99.90;;;;;;5073851;28;20445;-87
2023/01/03 07:11:14;;;;;;;0.40;0.30;;;6.00;99.90;;;;;;5073598;28;20488;-86
2023/01/03 07:13:58;;;;;;;0.33;0.27;;;6.00;99.90;;;;;;5073060;28;20477;-86
2023/01/03 07:16:27;;;;;;;0.50;0.50;;;6.00;99.90;;;;;;5073692;28;20430;-87
2023/01/03 07:18:54;;;;;;;0.30;0.30;;;6.00;99.90;;;;;;5073507;28;20457;-86
2023/01/03 07:21:23;;;;;;;0.30;0.30;;;6.00;99.90;;;;;;5073583;28;20453;-87
2023/01/03 07:23:51;;;;;;;0.30;0.20;;;6.10;99.90;;;;;;5073429;28;20477;-86
2023/01/03 07:26:18;;;;;;;0.30;0.30;;;6.10;99.90;;;;;;5073613;28;20457;-87
2023/01/03 07:28:45;;;;;;;0.30;0.20;;;6.10;99.90;;;;;;5073282;28;20426;-86
2023/01/03 07:31:12;;;;;;;0.40;0.30;;;6.10;99.90;;;;;;5072927;28;20488;-86
2023/01/03 07:33:39;;;;;;;0.30;0.30;;;6.00;99.90;;;;;;5073320;28;20476;-86
2023/01/03 07:36:07;;;;;;;0.30;0.30;;;6.00;99.90;;;;;;5073326;28;20450;-86
2023/01/03 07:38:35;;;;;;;0.37;0.30;;;6.00;99.90;;;;;;5073381;28;20473;-86
2023/01/03 07:41:04;;;;;;;0.30;0.20;;;6.00;99.90;;;;;;5073260;28;20445;-86
2023/01/03 07:43:38;;;;;;;0.30;0.30;;;5.90;99.90;;;;;;5073205;28;20797;-86
2023/01/03 07:46:07;;;;;;;0.30;0.30;;;5.90;99.90;;;;;;5073295;28;20428;-86
2023/01/03 07:48:34;;;;;;;0.30;0.20;;;6.00;99.90;;;;;;5073046;28;20438;-86
2023/01/03 07:51:01;;;;;;;0.40;0.40;;;6.00;99.90;;;;;;5073047;28;20492;-86
2023/01/03 07:53:29;;;;;;;0.30;0.30;;;6.00;99.90;;;;;;5074418;28;20453;-86
2023/01/03 07:56:03;;;;;;;0.30;0.30;;;6.10;99.90;;;;;;5076562;28;20880;-86
2023/01/03 07:58:31;;;;;;;0.30;0.30;;;6.10;99.90;;;;;;5076831;28;20425;-87
2023/01/03 08:01:06;;;;;;;0.40;0.30;;;6.20;99.90;;;;;;5076332;28;20960;-86
2023/01/03 08:03:35;;;;;;;0.40;0.40;;;6.20;99.90;;;;;;5076249;28;20432;-87
2023/01/03 08:06:03;;;;;;;0.30;0.30;;;6.30;99.90;;;;;;5076651;28;20461;-86
2023/01/03 08:08:29;;;;;;;0.30;0.30;;;6.30;99.90;;;;;;5076708;28;20425;-86
2023/01/03 08:13:42;;;;;;;0.40;0.30;;;6.50;99.90;;;;;;5076066;28;20515;-84
2023/01/03 08:16:11;;;;;;;0.30;0.20;;;6.60;99.90;;;;;;5076100;28;20969;-85
2023/01/03 08:18:39;;;;;;;0.30;0.30;;;6.60;99.90;;;;;;5076103;28;20801;-85
2023/01/03 08:21:07;;;;;;;0.40;0.40;;;6.70;99.90;;;;;;5076282;28;20449;-85
2023/01/03 08:23:34;;;;;;;0.40;0.40;;;6.80;99.90;;;;;;5075815;28;20449;-85
2023/01/03 08:26:02;;;;;;;0.30;0.30;;;6.90;99.90;;;;;;5076093;28;20460;-85
2023/01/03 08:28:29;;;;;;;0.30;0.20;;;7.00;99.90;;;;;;5076131;28;20450;-84
2023/01/03 08:30:59;;;;;;;0.30;0.20;;;7.00;99.90;;;;;;5075953;28;20478;-85
2023/01/03 08:33:28;;;;;;;0.40;0.30;;;7.10;99.90;;;;;;5075936;28;20437;-85
2023/01/03 08:36:00;;;;;;;0.40;0.30;;;7.10;99.90;;;;;;5075819;28;20456;-84
2023/01/03 08:38:31;;;;;;;0.37;0.27;;;7.10;99.90;;;;;;5075885;28;20437;-84
2023/01/03 08:41:01;;;;;;;0.40;0.30;;;7.10;99.90;;;;;;5075654;28;20434;-83
2023/01/03 08:43:29;;;;;;;0.37;0.30;;;7.20;99.90;;;;;;5075616;28;20441;-84
2023/01/03 08:45:57;;;;;;;0.50;0.40;;;7.20;99.90;;;;;;5075603;28;20933;-84
2023/01/03 08:48:24;;;;;;;2.10;0.40;;;7.30;99.90;;;;;;5075732;28;20446;-84
2023/01/03 08:50:51;;;;;;;0.40;0.40;;;7.30;99.90;;;;;;5075180;28;21023;-84
2023/01/03 08:53:18;;;;;;;0.40;0.40;;;7.30;99.90;;;;;;5075493;28;20450;-85
2023/01/03 08:55:44;;;;;;;0.40;0.30;;;7.30;99.90;;;;;;5075438;28;20446;-84
2023/01/03 08:58:11;;;;;;;0.40;0.40;;;7.30;99.90;;;;;;5075613;28;20449;-84
2023/01/03 09:00:38;;;;;;;0.50;0.40;;;7.30;99.90;;;;;;5075170;28;20560;-84
2023/01/03 09:03:06;;;;;;;1.70;0.50;;;7.40;99.90;;;;;;5075280;28;20449;-84
2023/01/03 09:05:33;;;;;;;0.47;0.30;;;7.40;99.90;;;;;;5074142;28;20466;-85
2023/01/03 09:08:00;;;;;;;0.40;0.40;;;7.40;99.90;;;;;;5075120;28;20874;-84
2023/01/03 09:10:26;;;;;;;0.57;0.50;;;7.40;99.90;;;;;;5074773;28;20965;-84
2023/01/03 09:12:53;;;;;;;1.40;0.87;;;7.50;99.90;;;;;;5074887;28;20496;-84
2023/01/03 09:15:21;;;;;;;1.20;0.60;;;7.50;99.90;;;;;;5075182;28;20480;-84
2023/01/03 09:17:48;;;;;;;0.50;0.50;;;7.50;99.90;;;;;;5074960;28;20449;-85
2023/01/03 09:20:17;;;;;;;1.33;0.33;;;7.60;99.90;;;;;;5074606;28;20949;-84
2023/01/03 09:22:46;;;;;;;0.50;0.50;;;7.60;99.90;;;;;;5074854;28;20495;-84
2023/01/03 09:25:13;;;;;;;0.30;0.30;;;7.70;99.90;;;;;;5074723;28;20548;-84
2023/01/03 09:27:44;;;;;;;0.80;0.50;;;7.70;99.90;;;;;;5074301;28;20453;-84
2023/01/03 09:30:12;;;;;;;1.70;0.47;;;7.80;99.90;;;;;;5074779;28;20434;-84
2023/01/03 09:32:39;;;;;;;0.40;0.40;;;7.80;99.90;;;;;;5074562;28;20569;-85
2023/01/03 09:35:06;;;;;;;1.07;0.30;;;7.90;99.90;;;;;;5074248;28;20973;-85
2023/01/03 09:37:34;;;;;;;0.50;0.40;;;7.90;99.90;;;;;;5074525;28;20449;-85
2023/01/03 09:40:01;;;;;;;0.40;0.40;;;8.00;99.90;;;;;;5074573;28;20457;-84
2023/01/03 09:45:16;;;;;;;1.13;0.50;;;8.20;99.90;;;;;;5074337;28;20445;-84
2023/01/03 09:47:44;;;;;;;0.37;0.33;;;8.30;99.90;;;;;;5074454;28;20430;-84
2023/01/03 09:50:18;;;;;;;0.40;0.40;;;8.40;99.90;;;;;;5074276;28;20448;-84
2023/01/03 10:04:23;;;;;;;0.40;0.30;;;9.80;99.90;;;;;;5073914;28;20521;-84
2023/01/03 10:07:02;;;;;;;1.40;0.57;;;10.00;99.90;;;;;;5073775;28;20500;-84
2023/01/03 10:09:39;;;;;;;0.43;0.43;;;10.20;99.90;;;;;;5073598;28;20909;-84
2023/01/03 10:12:14;;;;;;;0.43;0.30;;;10.30;99.90;;;;;;5073470;28;20995;-85
2023/01/03 10:14:53;;;;;;;0.47;0.47;;;10.40;99.90;;;;;;5073240;28;21015;-84
2023/01/03 10:17:28;;;;;;;0.70;0.50;;;10.50;99.90;;;;;;5073969;28;20438;-84
2023/01/03 10:20:18;;;;;;;0.30;0.30;;;10.60;99.90;;;;;;5075255;28;20445;-84
2023/01/03 10:22:46;;;;;;;0.40;0.40;;;10.50;99.90;;;;;;5073350;28;20448;-84
2023/01/03 10:25:17;;;;;;;0.30;0.30;;;10.40;99.90;;;;;;5073875;28;20462;-84
2023/01/03 10:27:47;;;;;;;0.40;0.40;;;10.30;99.90;;;;;;5073664;28;20433;-84
2023/01/03 10:30:17;;;;;;;0.40;0.30;;;10.20;99.90;;;;;;5074130;28;20454;-84
2023/01/03 10:33:17;;;;;;;0.53;0.53;;;10.00;99.90;;;;;;5073596;28;20472;-84
2023/01/03 10:35:44;;;;;;;0.40;0.30;;;9.90;99.90;;;;;;5074648;28;20434;-84
2023/01/03 10:38:14;;;;;;;0.40;0.30;;;9.60;99.90;;;;;;5073704;28;20454;-84
2023/01/03 10:40:45;;;;;;;0.40;0.40;;;9.50;99.90;;;;;;5073200;28;20805;-84
2023/01/03 10:43:17;;;;;;;0.30;0.30;;;9.40;99.90;;;;;;5073170;28;20806;-84
2023/01/03 10:45:52;;;;;;;2.60;0.93;;;9.40;99.90;;;;;;5073190;28;20808;-84
2023/01/03 10:48:19;;;;;;;8.80;0.60;;;9.30;99.90;;;;;;5073716;28;20562;-84
2023/01/03 10:50:46;;;;;;;0.40;0.30;;;9.30;99.90;;;;;;5073171;28;20948;-84
2023/01/03 10:53:15;;;;;;;0.40;0.40;;;9.20;99.90;;;;;;5072971;28;20859;-84
2023/01/03 10:55:47;;;;;;;1.03;0.37;;;9.00;99.90;;;;;;5073537;28;20457;-84
2023/01/03 10:58:19;;;;;;;0.77;0.40;;;9.00;99.90;;;;;;5073360;28;20452;-84
2023/01/03 11:00:46;;;;;;;0.40;0.30;;;9.00;99.90;;;;;;5073032;28;20440;-84
2023/01/03 11:03:16;;;;;;;0.30;0.30;;;8.90;99.90;;;;;;5073252;28;20485;-83
2023/01/03 11:05:45;;;;;;;0.40;0.33;;;8.90;99.90;;;;;;5073259;28;20453;-83
2023/01/03 11:08:16;;;;;;;3.80;0.37;;;8.90;99.90;;;;;;5072982;28;20949;-83
2023/01/03 11:10:53;;;;;;;0.40;0.30;;;9.00;99.90;;;;;;5073188;28;20430;-84
2023/01/03 11:13:27;;;;;;;0.30;0.27;;;9.00;99.90;;;;;;5073001;28;20491;-83
2023/01/03 11:15:55;;;;;;;0.40;0.30;;;9.00;99.90;;;;;;5073141;28;20437;-84
2023/01/03 11:18:22;;;;;;;0.30;0.30;;;9.00;99.90;;;;;;5073767;28;20438;-84
2023/01/03 11:20:55;;;;;;;0.60;0.37;;;9.00;99.90;;;;;;5072825;28;20445;-84
2023/01/03 11:23:29;;;;;;;0.50;0.50;;;9.00;99.90;;;;;;5073039;28;20426;-83
2023/01/03 11:26:06;;;;;;;0.47;0.40;;;9.10;99.90;;;;;;5072760;28;20981;-84
2023/01/03 11:28:52;;;;;;;0.40;0.30;;;9.10;99.90;;;;;;5074671;28;20409;-84
2023/01/03 11:31:32;;;;;;;0.50;0.40;;;9.10;99.90;;;;;;5076502;28;20912;-84
2023/01/03 11:34:11;;;;;;;0.40;0.40;;;9.20;99.90;;;;;;5076871;28;20523;-84
2023/01/03 11:36:48;;;;;;;0.40;0.30;;;9.30;99.90;;;;;;5076833;28;20434;-84
2023/01/03 11:39:27;;;;;;;0.50;0.50;;;9.20;99.90;;;;;;5076786;28;20436;-84
2023/01/03 11:42:16;;;;;;;0.30;0.30;;;9.30;99.90;;;;;;5076737;28;20430;-84
2023/01/03 11:45:04;;;;;;;0.30;0.30;;;9.30;99.90;;;;;;5076090;28;20873;-84
2023/01/03 11:47:40;;;;;;;0.40;0.30;;;9.30;99.90;;;;;;5076734;28;20479;-84
2023/01/03 11:50:18;;;;;;;0.30;0.30;;;9.20;99.90;;;;;;5076410;28;20429;-84
2023/01/03 11:52:50;;;;;;;0.40;0.30;;;9.20;99.90;;;;;;5076778;28;20556;-84
2023/01/03 11:55:42;;;;;;;0.30;0.30;;;9.20;99.90;;;;;;5076529;28;20976;-84
2023/01/03 11:58:30;;;;;;;0.60;0.37;;;9.10;99.90;;;;;;5076532;28;20425;-84
2023/01/03 12:01:08;;;;;;;0.30;0.30;;;9.20;99.90;;;;;;5076459;28;20453;-84
2023/01/03 12:03:52;;;;;;;0.50;0.30;;;9.20;99.90;;;;;;5076400;28;20507;-84
2023/01/03 12:06:24;;;;;;;0.30;0.30;;;9.20;99.90;;;;;;5076324;28;20785;-85
2023/01/03 12:09:09;;;;;;;0.30;0.30;;;9.10;99.90;;;;;;5075941;28;20445;-84
2023/01/03 12:12:06;;;;;;;0.40;0.40;;;9.20;99.90;;;;;;5075841;28;20438;-84
2023/01/03 12:14:39;;;;;;;0.40;0.30;;;9.00;99.90;;;;;;5075739;28;20571;-84
2023/01/03 12:17:11;;;;;;;0.40;0.30;;;8.90;99.90;;;;;;5076186;28;20434;-84
2023/01/03 12:19:43;;;;;;;0.40;0.30;;;8.90;99.90;;;;;;5075786;28;20906;-84
2023/01/03 12:22:18;;;;;;;0.40;0.30;;;8.90;99.90;;;;;;5076043;28;20430;-84
2023/01/03 12:24:49;;;;;;;0.30;0.30;;;8.90;99.90;;;;;;5076067;28;20816;-84
2023/01/03 12:27:22;;;;;;;0.50;0.30;;;8.90;99.90;;;;;;5075957;28;20441;-84
2023/01/03 12:29:57;;;;;;;0.30;0.30;;;8.90;99.90;;;;;;5075575;28;20438;-84
2023/01/03 12:32:33;;;;;;;0.30;0.30;;;8.90;99.90;;;;;;5075509;28;20975;-84
2023/01/03 12:35:13;;;;;;;0.40;0.30;;;8.90;99.90;;;;;;5075896;28;20468;-84
2023/01/03 12:37:40;;;;;;;0.30;0.20;;;8.90;99.90;;;;;;5075864;28;20806;-84
2023/01/03 12:40:16;;;;;;;0.30;0.30;;;8.90;99.90;;;;;;5074463;28;20449;-84
2023/01/03 12:42:52;;;;;;;0.43;0.30;;;8.80;99.90;;;;;;5075864;28;20897;-84
2023/01/03 12:45:34;;;;;;;0.30;0.20;;;8.80;99.90;;;;;;5075599;28;20473;-84
2023/01/03 12:48:08;;;;;;;0.30;0.30;;;8.70;99.90;;;;;;5075202;28;20441;-84
2023/01/03 12:50:40;;;;;;;0.30;0.30;;;8.70;99.90;;;;;;5075227;28;20921;-83
2023/01/03 12:53:17;;;;;;;0.30;0.20;;;8.70;99.90;;;;;;5075436;28;20474;-83
2023/01/03 12:55:55;;;;;;;0.30;0.30;;;8.70;99.90;;;;;;5075149;28;20429;-84
2023/01/03 12:58:32;;;;;;;0.30;0.20;;;8.70;99.90;;;;;;5075115;28;20928;-84
2023/01/03 13:01:06;;;;;;;0.30;0.30;;;8.70;99.90;;;;;;5075266;28;20425;-84
2023/01/03 13:03:38;;;;;;;0.73;0.40;;;8.90;99.90;;;;;;5075154;28;20786;-84
2023/01/03 13:06:12;;;;;;;3.90;0.47;;;8.80;99.90;;;;;;5074836;28;20921;-84
2023/01/03 13:08:43;;;;;;;0.30;0.30;;;8.80;99.90;;;;;;5074909;28;20441;-83
2023/01/03 13:11:18;;;;;;;0.77;0.40;;;8.70;99.90;;;;;;5075164;28;20453;-83
2023/01/03 13:13:52;;;;;;;0.30;0.30;;;8.80;99.90;;;;;;5074615;28;21030;-84
2023/01/03 13:16:42;;;;;;;0.30;0.20;;;8.80;99.90;;;;;;5074963;28;20437;-84
2023/01/03 13:19:46;;;;;;;0.40;0.20;;;8.80;99.90;;;;;;5074982;28;20458;-84
2023/01/03 13:22:23;;;;;;;0.40;0.40;;;8.80;99.90;;;;;;5074608;28;20448;-84
2023/01/03 13:24:51;;;;;;;1.10;0.40;;;8.80;99.90;;;;;;5074776;28;20480;-84
2023/01/03 13:27:34;;;;;;;0.40;0.30;;;8.70;99.90;;;;;;5074696;28;20454;-84
2023/01/03 13:30:01;;;;;;;0.33;0.30;;;8.70;99.90;;;;;;5074458;28;20922;-84
2023/01/03 13:32:30;;;;;;;0.67;0.30;;;8.70;99.90;;;;;;5074247;28;20484;-84
2023/01/03 13:35:20;;;;;;;0.30;0.30;;;8.60;99.90;;;;;;5074240;28;20481;-84
2023/01/03 13:37:49;;;;;;;1.80;0.40;;;8.60;99.90;;;;;;5074220;28;20442;-84
2023/01/03 13:40:27;;;;;;;0.30;0.30;;;8.60;99.90;;;;;;5074155;28;20983;-84
2023/01/03 13:43:13;;;;;;;0.30;0.20;;;8.60;99.90;;;;;;5074488;28;20525;-84
2023/01/03 13:46:04;;;;;;;0.40;0.30;;;8.60;99.90;;;;;;5074703;28;20549;-84
2023/01/03 13:48:52;;;;;;;0.30;0.30;;;8.50;99.90;;;;;;5074397;28;20441;-84
2023/01/03 13:51:48;;;;;;;0.63;0.57;;;8.60;99.90;;;;;;5073922;28;20441;-84
2023/01/03 13:54:54;;;;;;;0.40;0.30;;;8.60;99.90;;;;;;5074159;28;20543;-84
2023/01/03 13:57:50;;;;;;;0.30;0.30;;;8.70;99.90;;;;;;5074402;28;20433;-84
2023/01/03 14:00:21;;;;;;;0.30;0.30;;;8.70;99.90;;;;;;5074159;28;20456;-84
2023/01/03 14:03:26;;;;;;;0.40;0.30;;;8.70;99.90;;;;;;5074137;28;20438;-84
2023/01/03 14:06:37;;;;;;;0.57;0.57;;;8.70;99.90;;;;;;5074058;28;20429;-83
2023/01/03 14:09:39;;;;;;;0.30;0.20;;;8.70;99.90;;;;;;5074016;28;20445;-84
2023/01/03 14:12:25;;;;;;;0.37;0.30;;;8.70;99.90;;;;;;5074971;28;20772;-85
2023/01/03 14:14:54;;;;;;;0.30;0.20;;;8.70;99.90;;;;;;5073828;28;20480;-84
2023/01/03 14:17:25;;;;;;;3.27;0.37;;;8.60;99.90;;;;;;5073840;28;20445;-84
2023/01/03 14:19:56;;;;;;;0.57;0.33;;;8.60;99.90;;;;;;5073840;28;20433;-84